Time;durP1;ratioP1;P1;durP2;ratioP2;P2;SDS_P1;SDS_P2;PMS_P1;PMS_P2;Temp;Humidity;BMP_temperature;BMP_pressure;BME280_temperature;BME280_humidity;BME280_pressure;Samples;Min_cycle;Max_cycle;Signal;HPM_P1;HPM_P2
2022/09/16 00:00:13;;;;;;;0.43;0.30;;;;;;;11.62;87.29;101042.84;5077077;28;20036;-87
2022/09/16 00:02:38;;;;;;;0.50;0.50;;;;;;;11.63;86.69;101041.97;5076892;28;20020;-88
2022/09/16 00:05:03;;;;;;;1.13;0.50;;;;;;;11.64;87.88;101033.28;5076539;28;20119;-88
2022/09/16 00:07:29;;;;;;;0.60;0.50;;;;;;;11.64;87.26;101030.69;5076895;28;20465;-89
2022/09/16 00:09:54;;;;;;;0.57;0.57;;;;;;;11.64;86.90;101039.34;5076524;28;20024;-89
2022/09/16 00:12:20;;;;;;;0.50;0.50;;;;;;;11.64;87.19;101038.47;5076710;28;20035;-88
2022/09/16 00:14:46;;;;;;;0.50;0.50;;;;;;;11.67;87.49;101033.25;5076744;28;20082;-88
2022/09/16 00:17:11;;;;;;;0.70;0.53;;;;;;;11.64;87.32;101028.97;5076246;28;20032;-89
2022/09/16 00:19:36;;;;;;;0.40;0.40;;;;;;;11.64;87.30;101030.69;5076153;28;20116;-88
2022/09/16 00:22:02;;;;;;;0.37;0.37;;;;;;;11.65;87.14;101027.19;5076769;28;20027;-89
2022/09/16 00:24:28;;;;;;;0.40;0.40;;;;;;;11.66;87.29;101024.56;5062546;28;20056;-89
2022/09/16 00:27:05;;;;;;;0.30;0.30;;;;;;;11.63;87.48;101019.44;5056289;28;20457;-89
2022/09/16 00:29:31;;;;;;;0.35;0.35;;;;;;;11.65;88.00;101019.41;5056409;28;20052;-89
2022/09/16 00:31:56;;;;;;;0.93;0.53;;;;;;;11.65;87.26;101016.81;5055696;28;20456;-89
2022/09/16 00:34:22;;;;;;;0.60;0.60;;;;;;;11.64;88.49;101020.28;5056668;28;20070;-89
2022/09/16 00:36:47;;;;;;;0.50;0.50;;;;;;;11.61;87.70;101020.31;5056226;28;20025;-89
2022/09/16 00:39:13;;;;;;;0.40;0.40;;;;;;;11.63;87.77;101028.97;5058430;28;20031;-88
2022/09/16 00:41:38;;;;;;;1.23;0.60;;;;;;;11.59;87.58;101022.97;5075482;28;20052;-89
2022/09/16 00:44:25;;;;;;;0.73;0.50;;;;;;;11.62;87.49;101022.03;5076610;28;20035;-89
2022/09/16 00:46:53;;;;;;;0.70;0.60;;;;;;;11.60;87.52;101024.69;5077751;28;20032;-89
2022/09/16 00:49:27;;;;;;;0.60;0.60;;;;;;;11.61;87.47;101025.53;5077696;28;20081;-89
2022/09/16 00:51:58;;;;;;;0.50;0.45;;;;;;;11.58;87.18;101016.91;5075898;28;20037;-89
2022/09/16 00:54:35;;;;;;;1.08;0.60;;;;;;;11.56;87.08;101013.47;5076062;28;20021;-89
2022/09/16 00:57:01;;;;;;;1.02;0.90;;;;;;;11.55;87.20;101014.38;5076333;28;20031;-89
2022/09/16 00:59:37;;;;;;;0.57;0.57;;;;;;;11.55;87.44;101014.38;5075897;28;20074;-90
2022/09/16 01:02:10;;;;;;;1.08;0.60;;;;;;;11.53;87.32;101021.31;5076034;28;20111;-89
2022/09/16 01:05:05;;;;;;;0.60;0.60;;;;;;;11.51;87.36;101015.28;5075770;28;20063;-89
2022/09/16 01:07:37;;;;;;;0.87;0.57;;;;;;;11.49;87.18;101018.81;5073892;28;20032;-89
2022/09/16 01:10:03;;;;;;;0.88;0.80;;;;;;;11.44;87.18;101006.72;5076129;28;20035;-89
2022/09/16 01:12:30;;;;;;;0.57;0.57;;;;;;;11.42;87.30;101010.25;5065445;28;20115;-89
2022/09/16 01:14:57;;;;;;;0.63;0.60;;;;;;;11.40;87.07;101010.28;5055383;28;20025;-89
2022/09/16 01:17:45;;;;;;;1.13;0.80;;;;;;;11.37;87.28;101010.31;5055752;28;20113;-89
2022/09/16 01:20:52;;;;;;;0.50;0.50;;;;;;;11.33;87.45;101003.44;5055230;28;20029;-88
2022/09/16 01:23:45;;;;;;;0.50;0.50;;;;;;;11.27;87.37;100998.34;5055678;28;20155;-89
2022/09/16 01:26:37;;;;;;;0.55;0.52;;;;;;;11.21;87.14;101009.69;5055961;28;20064;-89
2022/09/16 01:29:21;;;;;;;1.23;0.80;;;;;;;11.16;87.42;101006.31;5055186;28;20031;-88
2022/09/16 01:32:01;;;;;;;0.73;0.60;;;;;;;11.10;87.33;101004.66;5055226;28;20466;-89
2022/09/16 01:34:48;;;;;;;0.60;0.60;;;;;;;11.09;87.50;101010.72;5074006;28;20037;-89
2022/09/16 01:37:27;;;;;;;0.60;0.60;;;;;;;11.06;87.42;101009.91;5075238;28;20115;-89
2022/09/16 01:40:12;;;;;;;0.85;0.85;;;;;;;11.01;87.56;101002.19;5075278;28;20050;-89
2022/09/16 01:42:46;;;;;;;0.75;0.75;;;;;;;11.00;87.49;101010.88;5074598;28;20017;-89
2022/09/16 01:45:32;;;;;;;0.70;0.70;;;;;;;10.97;87.67;101009.19;5074778;28;20036;-89
2022/09/16 01:48:31;;;;;;;1.23;0.90;;;;;;;10.94;87.53;101008.38;5055139;28;20081;-89
2022/09/16 01:51:23;;;;;;;0.52;0.52;;;;;;;10.90;87.61;100999.78;5055168;28;20370;-90
2022/09/16 01:53:58;;;;;;;0.88;0.75;;;;;;;10.88;87.73;101006.72;5054977;28;20028;-89
2022/09/16 01:56:45;;;;;;;0.73;0.73;;;;;;;10.86;87.22;101007.63;5054646;28;20033;-89
2022/09/16 01:59:22;;;;;;;0.73;0.70;;;;;;;10.84;87.57;101007.63;5068782;28;20111;-89
2022/09/16 02:01:55;;;;;;;0.65;0.65;;;;;;;10.79;87.54;101010.28;5074722;28;20468;-89
2022/09/16 02:04:26;;;;;;;0.70;0.70;;;;;;;10.77;87.60;101009.44;5074469;28;20070;-89
2022/09/16 02:06:54;;;;;;;1.17;0.93;;;;;;;10.74;87.60;101014.69;5074132;28;20033;-89
2022/09/16 02:09:25;;;;;;;1.35;0.70;;;;;;;10.72;87.81;101016.44;5074656;28;20031;-89
2022/09/16 02:11:56;;;;;;;1.13;0.93;;;;;;;10.70;88.17;101023.41;5074285;28;20021;-89
2022/09/16 02:14:25;;;;;;;1.30;0.80;;;;;;;10.68;87.70;101021.72;5060231;28;20067;-89
2022/09/16 02:16:58;;;;;;;0.80;0.80;;;;;;;10.67;88.04;101020.84;5054015;28;20052;-89
2022/09/16 02:19:41;;;;;;;0.75;0.75;;;;;;;10.66;89.10;101022.59;5054541;28;20025;-89
2022/09/16 02:22:12;;;;;;;1.13;0.70;;;;;;;10.62;88.79;101026.09;5054806;28;20029;-89
2022/09/16 02:24:40;;;;;;;0.85;0.85;;;;;;;10.64;88.71;101018.28;5054243;28;20047;-89
2022/09/16 02:27:10;;;;;;;0.80;0.80;;;;;;;10.66;88.86;101019.13;5060406;28;20469;-90
2022/09/16 02:29:43;;;;;;;0.60;0.60;;;;;;;10.69;88.74;101018.25;5074306;28;20031;-89
2022/09/16 02:32:09;;;;;;;1.48;0.63;;;;;;;10.69;89.07;101026.03;5074371;28;20024;-89
2022/09/16 02:34:40;;;;;;;0.50;0.50;;;;;;;10.66;89.13;101025.19;5056055;28;20044;-89
2022/09/16 02:37:11;;;;;;;0.63;0.63;;;;;;;10.68;89.32;101021.72;5053937;28;20378;-89
2022/09/16 02:39:39;;;;;;;0.50;0.50;;;;;;;10.71;89.96;101011.25;5053907;28;20028;-89
2022/09/16 02:42:05;;;;;;;0.80;0.80;;;;;;;10.70;89.20;101018.22;5053937;28;20118;-89
2022/09/16 02:44:33;;;;;;;0.73;0.73;;;;;;;10.69;89.63;101008.69;5053585;28;20497;-89
2022/09/16 02:47:07;;;;;;;0.68;0.68;;;;;;;10.71;88.98;101011.25;5054166;28;20036;-90
2022/09/16 02:49:41;;;;;;;0.95;0.70;;;;;;;10.72;89.23;101011.25;5054431;28;20032;-89
2022/09/16 02:52:38;;;;;;;0.82;0.60;;;;;;;10.73;89.33;101017.31;5053974;28;20028;-89
2022/09/16 02:55:26;;;;;;;;;;;;;;;10.69;90.53;101011.28;5054690;28;20108;-89
2022/09/16 02:57:51;;;;;;;1.02;0.95;;;;;;;10.65;90.87;101010.47;5053884;28;19970;-88
2022/09/16 03:00:16;;;;;;;0.93;0.80;;;;;;;10.64;90.44;101019.16;5053891;28;20029;-88
2022/09/16 03:02:42;;;;;;;0.80;0.80;;;;;;;10.63;89.62;101008.78;5053516;28;20040;-88
2022/09/16 03:05:08;;;;;;;0.70;0.70;;;;;;;10.65;89.70;101002.69;5053566;28;20465;-88
2022/09/16 03:07:34;;;;;;;0.88;0.70;;;;;;;10.65;89.95;101005.28;5053773;28;20041;-88
2022/09/16 03:10:01;;;;;;;0.60;0.60;;;;;;;10.66;89.89;101014.78;5073486;28;20551;-89
2022/09/16 03:12:48;;;;;;;1.48;0.80;;;;;;;10.68;90.25;101008.72;5073677;28;20107;-90
2022/09/16 03:15:25;;;;;;;1.20;0.75;;;;;;;10.67;90.38;101000.06;5067452;28;20119;-88
2022/09/16 03:18:21;;;;;;;1.63;0.82;;;;;;;10.69;90.83;100997.47;5053412;28;20060;-89
2022/09/16 03:21:06;;;;;;;1.80;1.00;;;;;;;10.68;91.05;101001.78;5053176;28;20060;-89
2022/09/16 03:24:00;;;;;;;1.07;0.97;;;;;;;10.68;91.16;100998.34;5053849;28;20025;-90
2022/09/16 03:26:44;;;;;;;0.52;0.52;;;;;;;10.69;91.02;101005.25;5053576;28;20323;-89
2022/09/16 03:29:12;;;;;;;0.63;0.63;;;;;;;10.71;90.69;101004.34;5053530;28;20029;-88
2022/09/16 03:32:04;;;;;;;0.80;0.52;;;;;;;10.73;90.95;101007.78;5053018;28;20025;-89
2022/09/16 03:34:34;;;;;;;0.98;0.50;;;;;;;10.72;91.12;101011.25;5052802;28;20112;-89
2022/09/16 03:37:04;;;;;;;0.77;0.43;;;;;;;10.74;90.67;101003.44;5068964;28;20025;-87
2022/09/16 03:39:31;;;;;;;0.40;0.40;;;;;;;10.77;90.63;101004.25;5073298;28;20107;-87
2022/09/16 03:42:01;;;;;;;0.40;0.40;;;;;;;10.81;90.09;100997.28;5072539;28;20029;-88
2022/09/16 03:44:38;;;;;;;0.52;0.52;;;;;;;10.81;90.36;100998.16;5073477;28;20021;-89
2022/09/16 03:47:04;;;;;;;0.40;0.40;;;;;;;10.82;90.57;100999.88;5073434;28;20388;-89
2022/09/16 03:49:29;;;;;;;0.50;0.50;;;;;;;10.81;91.45;100995.56;5073188;28;20032;-89
2022/09/16 03:51:55;;;;;;;0.60;0.50;;;;;;;10.78;90.87;100998.19;5072833;28;20020;-88
2022/09/16 03:54:20;;;;;;;0.43;0.43;;;;;;;10.79;91.05;101004.25;5073564;28;20016;-89
2022/09/16 03:56:46;;;;;;;0.30;0.30;;;;;;;10.79;90.58;101004.25;5072757;28;20016;-89
2022/09/16 03:59:11;;;;;;;0.33;0.33;;;;;;;10.78;90.42;100997.34;5073272;28;20024;-89
2022/09/16 04:01:36;;;;;;;0.53;0.40;;;;;;;10.76;90.51;100992.16;5073035;28;20020;-88
2022/09/16 04:04:02;;;;;;;0.53;0.40;;;;;;;10.77;90.88;101003.41;5059490;28;20029;-89
2022/09/16 04:06:27;;;;;;;0.50;0.50;;;;;;;10.76;90.17;101002.53;5053513;28;20017;-89
2022/09/16 04:08:52;;;;;;;0.40;0.33;;;;;;;10.76;90.15;101002.53;5053032;28;20470;-88
2022/09/16 04:11:18;;;;;;;0.83;0.50;;;;;;;10.77;90.03;100999.06;5053622;28;20021;-89
2022/09/16 04:13:43;;;;;;;0.33;0.33;;;;;;;10.78;90.35;101007.72;5052529;28;20025;-89
2022/09/16 04:16:08;;;;;;;0.50;0.50;;;;;;;10.77;90.43;101000.81;5052644;28;20041;-89
2022/09/16 04:18:34;;;;;;;0.40;0.40;;;;;;;10.77;89.93;101003.41;5053263;28;20458;-89
2022/09/16 04:21:02;;;;;;;0.57;0.57;;;;;;;10.74;90.03;101000.84;5052710;28;20060;-89
2022/09/16 04:23:29;;;;;;;0.38;0.38;;;;;;;10.73;89.87;101007.78;5052877;28;20074;-88
2022/09/16 04:26:00;;;;;;;0.30;0.30;;;;;;;10.73;90.03;101012.09;5053001;28;20025;-89
2022/09/16 04:28:26;;;;;;;0.40;0.40;;;;;;;10.72;89.99;101007.78;5052776;28;20079;-89
2022/09/16 04:30:51;;;;;;;0.43;0.43;;;;;;;10.71;90.17;101012.13;5059793;28;20020;-89
2022/09/16 04:33:17;;;;;;;0.33;0.33;;;;;;;10.70;89.88;101010.41;5073251;28;20029;-89
2022/09/16 04:35:42;;;;;;;0.37;0.37;;;;;;;10.72;90.18;101023.38;5072850;28;20024;-89
2022/09/16 04:38:08;;;;;;;0.40;0.40;;;;;;;10.72;90.23;101024.25;5074428;28;20033;-89
2022/09/16 04:40:33;;;;;;;0.40;0.40;;;;;;;10.71;90.03;101013.84;5076746;28;20028;-89
2022/09/16 04:42:58;;;;;;;0.57;0.57;;;;;;;10.70;90.80;101012.13;5075859;28;20031;-88
2022/09/16 04:45:23;;;;;;;0.60;0.43;;;;;;;10.71;91.04;101011.25;5076252;28;20029;-89
2022/09/16 04:47:59;;;;;;;0.80;0.40;;;;;;;10.70;90.75;101012.13;5075804;28;20020;-89
2022/09/16 04:50:24;;;;;;;0.70;0.70;;;;;;;10.70;91.29;101006.94;5076526;28;20059;-88
2022/09/16 04:52:50;;;;;;;0.80;0.60;;;;;;;10.72;92.40;100994.81;5075028;28;20056;-88
2022/09/16 04:55:17;;;;;;;0.57;0.57;;;;;;;10.73;91.03;100993.94;5073586;28;20108;-88
2022/09/16 04:57:42;;;;;;;0.35;0.35;;;;;;;10.74;91.13;100978.34;5055189;28;20093;-87
2022/09/16 05:00:09;;;;;;;0.60;0.60;;;;;;;10.77;90.61;100987.84;5055434;28;20029;-87
2022/09/16 05:02:34;;;;;;;0.73;0.52;;;;;;;10.80;90.51;100991.25;5055810;28;20150;-87
2022/09/16 05:04:59;;;;;;;0.43;0.43;;;;;;;10.80;90.46;100993.84;5055413;28;20059;-88
2022/09/16 05:07:26;;;;;;;1.07;0.30;;;;;;;10.82;90.17;100996.41;5055109;28;20024;-88
2022/09/16 05:09:51;;;;;;;0.50;0.50;;;;;;;10.82;90.54;101006.78;5055478;28;20032;-88
2022/09/16 05:12:16;;;;;;;0.40;0.40;;;;;;;10.81;90.68;101005.94;5055981;28;20377;-89
2022/09/16 05:14:42;;;;;;;0.47;0.40;;;;;;;10.82;90.54;101014.56;5055680;28;20021;-88
2022/09/16 05:17:07;;;;;;;0.40;0.40;;;;;;;10.81;90.85;101002.47;5055684;28;20489;-88
2022/09/16 05:19:32;;;;;;;0.80;0.40;;;;;;;10.81;90.39;101003.34;5055065;28;20029;-89
2022/09/16 05:21:57;;;;;;;0.40;0.40;;;;;;;10.82;90.40;101014.56;5055587;28;20021;-89
2022/09/16 05:24:23;;;;;;;0.37;0.37;;;;;;;10.82;90.52;101022.38;5057296;28;20110;-88
2022/09/16 05:26:48;;;;;;;0.30;0.30;;;;;;;10.81;90.47;101028.44;5055401;28;20519;-89
2022/09/16 05:29:15;;;;;;;0.50;0.40;;;;;;;10.80;90.76;101022.41;5057158;28;20548;-89
2022/09/16 05:31:42;;;;;;;0.45;0.35;;;;;;;10.79;91.03;101023.28;5075530;28;20455;-88
2022/09/16 05:34:17;;;;;;;0.38;0.38;;;;;;;10.79;91.00;101020.69;5075022;28;20016;-89
2022/09/16 05:36:43;;;;;;;0.30;0.30;;;;;;;10.80;90.96;101008.56;5075419;28;20134;-89
2022/09/16 05:39:12;;;;;;;0.57;0.30;;;;;;;10.76;91.22;101014.66;5075204;28;20548;-88
2022/09/16 05:41:38;;;;;;;0.40;0.40;;;;;;;10.75;91.89;101012.94;5075094;28;20301;-88
2022/09/16 05:44:05;;;;;;;0.30;0.30;;;;;;;10.73;91.63;101012.97;5075181;28;20025;-88
2022/09/16 05:46:31;;;;;;;0.15;0.15;;;;;;;10.74;91.73;101017.31;5075429;28;20092;-88
2022/09/16 05:48:56;;;;;;;0.50;0.30;;;;;;;10.76;91.43;101017.28;5073315;28;20438;-89
2022/09/16 05:51:23;;;;;;;0.20;0.20;;;;;;;10.76;91.92;101022.47;5074409;28;20028;-89
2022/09/16 05:53:50;;;;;;;0.20;0.20;;;;;;;10.77;91.64;101034.56;5074856;28;20538;-89
2022/09/16 05:56:17;;;;;;;0.35;0.30;;;;;;;10.78;92.01;101031.09;5075012;28;20521;-91
2022/09/16 05:58:43;;;;;;;0.20;0.20;;;;;;;10.81;91.57;101028.44;5074798;28;20415;-87
2022/09/16 06:01:17;;;;;;;0.30;0.30;;;;;;;10.84;91.82;101024.97;5074474;28;20087;-87
2022/09/16 06:03:44;;;;;;;0.30;0.30;;;;;;;10.87;92.75;101019.69;5073591;28;20029;-88
2022/09/16 06:06:15;;;;;;;;;;;;;;;10.87;92.05;101022.31;5076201;28;20138;-93
2022/09/16 06:08:40;;;;;;;0.65;0.47;;;;;;;10.88;91.95;101021.41;5076075;28;19912;-94
2022/09/16 06:11:09;;;;;;;0.23;0.23;;;;;;;10.92;91.56;101023.09;5077880;28;20412;-92
2022/09/16 06:13:35;;;;;;;0.32;0.32;;;;;;;10.96;92.37;101020.44;5131981;22;20056;-85
2022/09/16 06:16:02;;;;;;;0.90;0.60;;;;;;;10.99;93.33;101029.94;5073060;28;20394;-85
2022/09/16 06:18:29;;;;;;;1.20;0.50;;;;;;;11.03;93.19;101041.16;5066758;28;20025;-84
2022/09/16 06:20:55;;;;;;;0.40;0.40;;;;;;;11.07;93.13;101037.63;5053363;28;20213;-85
2022/09/16 06:23:21;;;;;;;0.50;0.50;;;;;;;11.12;93.62;101041.00;5053022;28;20461;-85
2022/09/16 06:25:47;;;;;;;0.77;0.40;;;;;;;11.11;92.62;101037.53;5053450;28;20032;-85
2022/09/16 06:28:13;;;;;;;0.30;0.30;;;;;;;11.11;92.48;101039.28;5053908;28;20027;-85
2022/09/16 06:30:39;;;;;;;1.20;0.40;;;;;;;11.10;92.73;101038.41;5052720;28;20113;-85
2022/09/16 06:33:05;;;;;;;0.97;0.30;;;;;;;11.13;92.86;101035.78;5053550;28;20045;-85
2022/09/16 06:35:33;;;;;;;0.63;0.20;;;;;;;11.21;92.96;101029.59;5053295;28;20029;-84
2022/09/16 06:37:58;;;;;;;0.35;0.35;;;;;;;11.30;92.87;101039.00;5052843;28;20049;-84
2022/09/16 06:40:24;;;;;;;0.20;0.20;;;;;;;11.40;92.38;101050.97;5053625;28;20429;-85
2022/09/16 06:42:52;;;;;;;0.20;0.20;;;;;;;11.44;92.90;101060.47;5054338;28;20056;-84
2022/09/16 06:45:18;;;;;;;0.30;0.30;;;;;;;11.44;92.25;101057.84;5052780;28;20079;-85
2022/09/16 06:47:43;;;;;;;0.23;0.20;;;;;;;11.45;91.32;101056.97;5052754;28;20021;-85
2022/09/16 06:50:08;;;;;;;0.20;0.20;;;;;;;11.51;92.43;101054.28;5053337;28;20027;-85
2022/09/16 06:52:34;;;;;;;0.30;0.30;;;;;;;11.64;91.73;101054.94;5052804;28;20021;-84
2022/09/16 06:54:59;;;;;;;1.50;0.20;;;;;;;11.77;91.35;101053.00;5053116;28;20112;-85
2022/09/16 06:57:24;;;;;;;0.17;0.13;;;;;;;11.78;91.32;101052.13;5053403;28;20029;-85
2022/09/16 06:59:49;;;;;;;0.10;0.10;;;;;;;11.76;91.00;101053.03;5051789;28;20032;-84
2022/09/16 07:02:15;;;;;;;0.30;0.30;;;;;;;11.76;91.15;101048.69;5052615;28;20032;-86
2022/09/16 07:04:41;;;;;;;0.30;0.30;;;;;;;12.84;91.09;101040.59;5053376;28;20021;-85
2022/09/16 07:07:06;;;;;;;0.10;0.10;;;;;;;14.32;90.04;101048.31;5053471;28;20021;-90
2022/09/16 07:09:32;;;;;;;1.30;0.20;;;;;;;14.94;86.36;101047.44;5054210;28;20095;-90
2022/09/16 07:12:01;;;;;;;0.73;0.50;;;;;;;14.94;85.05;101054.41;5065918;28;20107;-89
2022/09/16 07:14:27;;;;;;;0.57;0.30;;;;;;;14.60;84.44;101048.41;5073916;28;20090;-92
2022/09/16 07:16:52;;;;;;;0.30;0.30;;;;;;;14.27;85.07;101048.44;5073549;28;20469;-90
2022/09/16 07:19:18;;;;;;;0.30;0.30;;;;;;;13.97;85.38;101047.50;5072498;28;20029;-86
2022/09/16 07:21:43;;;;;;;0.30;0.30;;;;;;;13.74;85.76;101049.81;5072437;28;20029;-86
2022/09/16 07:24:11;;;;;;;0.40;0.40;;;;;;;13.55;85.77;101043.34;5072874;28;20066;-86
2022/09/16 07:26:38;;;;;;;0.88;0.52;;;;;;;13.37;86.13;101053.28;5071545;28;20486;-86
2022/09/16 07:29:05;;;;;;;0.30;0.30;;;;;;;13.27;86.65;101055.25;5072833;28;20079;-86
2022/09/16 07:31:36;;;;;;;0.30;0.30;;;;;;;13.24;86.95;101046.66;5072791;28;20107;-86
2022/09/16 07:34:02;;;;;;;0.57;0.50;;;;;;;13.22;86.78;101051.91;5072257;28;20031;-86
2022/09/16 07:36:32;;;;;;;0.52;0.40;;;;;;;13.23;87.60;101058.81;5071031;28;20047;-85
2022/09/16 07:38:58;;;;;;;0.80;0.45;;;;;;;13.30;87.79;101069.94;5072469;28;20032;-86
2022/09/16 07:41:26;;;;;;;0.20;0.20;;;;;;;13.44;88.19;101065.31;5070247;28;20028;-87
2022/09/16 07:43:54;;;;;;;1.48;0.70;;;;;;;13.47;87.27;101074.81;5072900;28;20025;-86
2022/09/16 07:46:20;;;;;;;1.05;0.57;;;;;;;13.34;87.29;101071.59;5072714;28;20049;-87
2022/09/16 07:48:47;;;;;;;0.77;0.60;;;;;;;13.23;87.51;101064.03;5073342;28;20028;-91
2022/09/16 07:51:16;;;;;;;0.43;0.40;;;;;;;13.17;88.38;101056.34;5073892;28;20024;-93
2022/09/16 07:53:43;;;;;;;1.27;0.70;;;;;;;13.11;88.04;101057.34;5073657;28;20586;-91
2022/09/16 07:56:09;;;;;;;;;;;;;;;13.06;88.01;101066.16;5071232;28;20035;-92
2022/09/16 07:58:35;;;;;;;;;;;;;;;12.95;88.03;101067.25;5073694;28;19916;-93
2022/09/16 08:01:01;;;;;;;0.57;0.50;;;;;;;12.85;88.37;101068.34;5072954;28;19916;-91
2022/09/16 08:03:27;;;;;;;0.75;0.60;;;;;;;12.81;88.56;101075.38;5073527;28;20017;-91
2022/09/16 08:05:52;;;;;;;1.40;0.70;;;;;;;12.82;88.40;101071.00;5073015;28;20036;-92
2022/09/16 08:08:17;;;;;;;0.20;0.20;;;;;;;12.83;88.50;101078.78;5069159;28;20455;-91
2022/09/16 08:10:51;;;;;;;0.87;0.60;;;;;;;12.87;89.11;101082.19;5053014;28;20020;-92
2022/09/16 08:13:16;;;;;;;0.77;0.65;;;;;;;12.95;89.05;101084.63;5056066;28;20041;-93
2022/09/16 08:15:41;;;;;;;0.80;0.70;;;;;;;13.02;88.78;101075.78;5056360;28;20488;-95
2022/09/16 08:18:07;;;;;;;1.63;0.90;;;;;;;13.12;89.50;101082.53;5058757;28;20029;-95
2022/09/16 08:20:32;;;;;;;3.43;1.10;;;;;;;13.18;89.20;101086.75;5058083;28;20025;-89
2022/09/16 08:22:57;;;;;;;1.20;0.80;;;;;;;13.23;89.17;101078.81;5059528;28;20025;-95
2022/09/16 08:25:22;;;;;;;1.03;0.90;;;;;;;13.29;89.90;101082.13;5065465;28;20025;-96
2022/09/16 08:27:48;;;;;;;0.83;0.73;;;;;;;13.36;88.94;101082.88;5070305;28;20036;-96
2022/09/16 08:30:13;;;;;;;1.00;0.87;;;;;;;13.48;89.64;101088.72;5069832;28;20029;-96
2022/09/16 08:32:38;;;;;;;1.07;0.60;;;;;;;13.55;89.34;101085.06;5069318;28;20033;-96
2022/09/16 08:35:04;;;;;;;0.60;0.53;;;;;;;13.63;89.43;101084.88;5061678;28;20079;-96
2022/09/16 08:37:30;;;;;;;0.80;0.80;;;;;;;13.74;89.74;101085.47;5061689;28;20036;-95
2022/09/16 08:39:55;;;;;;;0.87;0.73;;;;;;;13.84;89.45;101075.69;5063377;28;20033;-96
2022/09/16 08:42:41;;;;;;;0.60;0.60;;;;;;;13.94;88.80;101079.75;5064943;28;20082;-96
2022/09/16 08:45:18;;;;;;;;;;;;;;;14.02;87.61;101083.03;5062222;28;20029;-96
2022/09/16 08:47:55;;;;;;;0.98;0.90;;;;;;;14.11;87.18;101084.53;5059724;28;19912;-93
2022/09/16 08:50:28;;;;;;;1.67;1.02;;;;;;;14.23;87.15;101088.56;5056716;28;20021;-92
2022/09/16 08:52:56;;;;;;;1.58;1.17;;;;;;;14.24;85.95;101086.84;5056341;28;20467;-92
2022/09/16 08:55:30;;;;;;;1.90;1.00;;;;;;;14.33;87.01;101084.81;5056447;28;20017;-92
2022/09/16 08:58:09;;;;;;;0.57;0.57;;;;;;;14.51;85.02;101098.28;5056569;28;20017;-91
2022/09/16 09:00:36;;;;;;;1.42;0.80;;;;;;;14.66;86.00;101089.16;5056548;28;20103;-93
2022/09/16 09:03:14;;;;;;;2.22;1.27;;;;;;;14.74;85.65;101099.41;5069342;28;20036;-96
2022/09/16 09:05:49;;;;;;;0.50;0.50;;;;;;;14.70;85.10;101097.78;5057683;28;20037;-90
2022/09/16 09:08:14;;;;;;;1.75;0.77;;;;;;;14.76;84.70;101094.97;5055521;28;20028;-84
2022/09/16 09:11:06;;;;;;;1.07;0.50;;;;;;;14.90;83.86;101098.06;5055934;28;20063;-96
2022/09/16 09:13:46;;;;;;;1.15;0.63;;;;;;;15.04;83.37;101099.41;5073021;28;20068;-96
2022/09/16 09:16:24;;;;;;;0.63;0.57;;;;;;;15.04;82.87;101095.03;5085416;28;20084;-96
2022/09/16 09:19:06;;;;;;;0.75;0.55;;;;;;;15.04;83.33;101089.81;5205872;22;20048;-96
2022/09/16 09:21:56;;;;;;;0.30;0.30;;;;;;;15.00;80.84;101090.81;5086891;28;20008;-96
2022/09/16 09:24:55;;;;;;;1.40;0.70;;;;;;;14.97;81.00;101093.50;5088959;28;20016;-96
2022/09/16 09:27:27;;;;;;;0.32;0.30;;;;;;;15.05;82.39;101099.34;5091299;28;20028;-96
2022/09/16 09:30:01;;;;;;;0.82;0.60;;;;;;;15.16;79.94;101096.44;5085195;28;20040;-96
2022/09/16 09:35:19;;;;;;;0.43;0.40;;;;;;;15.22;79.72;101092.78;5299209;22;20044;-96
2022/09/16 09:40:41;;;;;;;0.70;0.45;;;;;;;15.12;78.28;101094.81;5410021;22;20037;-96
2022/09/16 09:45:59;;;;;;;2.95;1.00;;;;;;;15.35;68.90;101156.00;5079204;28;20037;-94
2022/09/16 09:48:31;;;;;;;3.30;0.70;;;;;;;14.78;67.91;101135.00;5081551;28;20566;-93
2022/09/16 09:51:01;;;;;;;0.88;0.60;;;;;;;13.78;70.01;101139.28;5077583;28;20032;-95
2022/09/16 09:53:43;;;;;;;1.95;0.80;;;;;;;12.96;72.71;101133.22;5081338;28;20020;-94
2022/09/16 09:56:19;;;;;;;1.33;0.60;;;;;;;12.68;75.97;101125.97;5076700;28;20028;-93
2022/09/16 09:58:54;;;;;;;1.40;0.40;;;;;;;12.43;77.68;101134.25;5075487;28;20386;-93
2022/09/16 10:01:20;;;;;;;1.23;0.60;;;;;;;12.25;78.65;101130.22;5076460;28;20389;-96
2022/09/16 10:03:48;;;;;;;0.93;0.53;;;;;;;12.02;80.12;101122.84;5092590;28;20029;-95
2022/09/16 10:06:14;;;;;;;1.23;0.60;;;;;;;11.82;81.28;101123.97;5093103;28;20036;-96
2022/09/16 10:08:46;;;;;;;4.10;0.90;;;;;;;11.64;81.76;101130.34;5085892;28;20044;-96
2022/09/16 10:11:20;;;;;;;2.15;0.60;;;;;;;11.63;82.96;101139.03;5086302;28;20078;-96
2022/09/16 10:13:54;;;;;;;1.30;0.40;;;;;;;11.63;83.85;101139.03;5086561;28;20024;-95
2022/09/16 10:16:23;;;;;;;1.15;0.40;;;;;;;11.62;84.35;101126.91;5076744;28;20024;-95
2022/09/16 10:18:57;;;;;;;0.95;0.50;;;;;;;11.62;84.27;101113.03;5075274;28;20028;-94
2022/09/16 10:21:24;;;;;;;0.38;0.38;;;;;;;11.57;84.13;101100.97;5075145;28;20033;-94
2022/09/16 10:23:56;;;;;;;0.38;0.30;;;;;;;11.63;83.32;101104.34;5074235;28;20103;-95
2022/09/16 10:26:24;;;;;;;0.45;0.20;;;;;;;11.71;83.00;101108.56;5075115;28;20028;-95
2022/09/16 10:29:21;;;;;;;0.22;0.22;;;;;;;11.81;83.32;101111.00;5074408;28;20024;-95
2022/09/16 10:31:46;;;;;;;;;;;;;;;11.87;82.64;101103.97;5075123;28;20095;-96
2022/09/16 10:34:32;;;;;;;0.30;0.30;;;;;;;12.00;82.57;101109.84;5075827;28;19920;-96
2022/09/16 10:37:10;;;;;;;0.03;0.03;;;;;;;12.27;82.64;101112.84;5075286;28;20047;-96
2022/09/16 10:39:42;;;;;;;0.30;0.20;;;;;;;12.57;82.51;101104.50;5075472;28;20343;-96
2022/09/16 10:42:38;;;;;;;0.40;0.20;;;;;;;12.88;83.81;101104.75;5075183;28;20035;-96
2022/09/16 10:45:24;;;;;;;1.02;0.30;;;;;;;13.15;82.37;101107.66;5074278;28;20047;-96
2022/09/16 10:47:53;;;;;;;0.40;0.10;;;;;;;13.42;83.04;101103.59;5073860;28;20493;-96
2022/09/16 10:50:19;;;;;;;0.15;0.10;;;;;;;13.69;81.91;101103.84;5082388;28;20028;-96
2022/09/16 10:52:46;;;;;;;0.20;0.20;;;;;;;13.99;82.56;101106.59;5094564;28;20031;-96
2022/09/16 10:55:31;;;;;;;0.00;0.00;;;;;;;14.27;81.92;101105.88;5077753;28;20473;-96
2022/09/16 10:58:15;;;;;;;0.08;0.05;;;;;;;14.51;82.46;101098.28;5080077;28;20024;-96
2022/09/16 11:00:55;;;;;;;0.65;0.10;;;;;;;14.65;82.57;101100.50;5077272;28;20025;-96
2022/09/16 11:04:16;;;;;;;0.20;0.20;;;;;;;14.71;81.54;101100.34;5081022;28;20028;-96
2022/09/16 11:07:08;;;;;;;0.10;0.10;;;;;;;14.66;81.73;101102.22;4994319;28;20483;-95
2022/09/16 11:09:51;;;;;;;0.40;0.35;;;;;;;14.55;81.53;101099.88;4997115;28;20027;-96
2022/09/16 11:26:47;;;;;;;0.47;0.30;;;;;;;14.07;83.61;101113.38;5247417;23;20050;-96
2022/09/16 11:29:15;;;;;;;0.85;0.17;;;;;;;14.11;83.54;101107.16;5018229;28;20176;-94
2022/09/16 11:34:38;;;;;;;0.73;0.30;;;;;;;14.43;84.19;101108.06;5137257;22;20056;-89
2022/09/16 11:37:25;;;;;;;0.65;0.35;;;;;;;14.60;83.72;101104.97;5016084;28;20367;-95
2022/09/16 11:40:03;;;;;;;;;;;;;;;14.80;83.29;101109.69;5019068;28;20508;-96
2022/09/16 11:42:39;;;;;;;0.57;0.50;;;;;;;15.05;83.51;101112.44;5022980;28;19921;-96
2022/09/16 11:48:17;;;;;;;0.75;0.40;;;;;;;15.34;82.79;101110.72;5211625;22;20053;-96
2022/09/16 11:50:42;;;;;;;1.45;0.73;;;;;;;15.54;79.37;101111.84;5036797;28;20038;-96
2022/09/16 11:53:17;;;;;;;2.67;0.90;;;;;;;15.70;81.79;101117.44;5025172;28;20030;-91
2022/09/16 11:56:03;;;;;;;3.28;0.90;;;;;;;15.62;73.46;101154.28;5024278;28;20030;-92
2022/09/16 11:58:46;;;;;;;2.83;0.82;;;;;;;14.51;68.74;101179.25;5018628;28;20382;-91
2022/09/16 12:01:25;;;;;;;1.95;0.50;;;;;;;13.74;73.42;101169.78;5017379;28;20038;-88
2022/09/16 12:04:11;;;;;;;0.85;0.32;;;;;;;13.27;75.91;101158.66;5017111;28;20519;-87
2022/09/16 12:06:46;;;;;;;0.90;0.47;;;;;;;13.09;77.58;101170.31;5017114;28;20026;-90
2022/09/16 12:09:18;;;;;;;0.20;0.20;;;;;;;13.01;78.60;101164.41;5019006;28;20029;-88
2022/09/16 12:11:50;;;;;;;0.20;0.20;;;;;;;13.00;79.38;101147.06;5016942;28;20032;-94
2022/09/16 12:14:22;;;;;;;0.20;0.20;;;;;;;12.94;79.31;101150.66;5017164;28;20029;-88